Terminal Aerodrome Forecast
Issued by NWS

Home | Current Version | Previous Version | Text Only | Print | Product List | Glossary On
Versions: 1 2 3 4 5 6 7 8 9 10 11 12 13 14 15 16
000
FTUS42 KTBW 260523
TAFRSW
TAF
KRSW 260523Z 2606/2706 VRB03KT P6SM FEW250
     FM262000 26007KT P6SM FEW200
     FM270200 32005KT P6SM FEW250=

USA.gov is the U.S. government's official web portal to all federal, state and local government web resources and services.